createdAt,value
2018-09-22T00:02:00.605Z,90.20
2018-09-22T00:04:28.784Z,90.10
2018-09-22T00:06:56.928Z,90.10
2018-09-22T00:09:25.159Z,90.20
2018-09-22T00:11:53.359Z,90.30
2018-09-22T00:14:21.539Z,90.20
2018-09-22T00:16:49.816Z,90.20
2018-09-22T00:19:18.012Z,90.30
2018-09-22T00:21:46.241Z,90.30
2018-09-22T00:24:15.633Z,90.30
2018-09-22T00:26:44.759Z,90.30
2018-09-22T00:29:12.975Z,90.20
2018-09-22T00:31:41.193Z,90.20
2018-09-22T00:34:09.401Z,90.30
2018-09-22T00:36:37.598Z,90.40
2018-09-22T00:39:07.413Z,90.50
2018-09-22T00:41:35.784Z,90.60
2018-09-22T00:44:04.026Z,90.60
2018-09-22T00:46:33.408Z,90.70
2018-09-22T00:49:01.548Z,90.90
2018-09-22T00:51:29.942Z,90.70
2018-09-22T00:53:58.119Z,90.40
2018-09-22T00:56:26.333Z,90.50
2018-09-22T00:58:54.564Z,90.60
2018-09-22T01:01:22.749Z,90.50
2018-09-22T01:03:51.175Z,90.50
2018-09-22T01:06:19.385Z,90.40
2018-09-22T01:08:48.569Z,90.60
2018-09-22T01:11:16.756Z,90.80
2018-09-22T01:13:44.868Z,90.90
2018-09-22T01:16:13.027Z,90.80
2018-09-22T01:18:41.198Z,90.90
2018-09-22T01:21:09.364Z,90.90
2018-09-22T01:23:37.545Z,90.90
2018-09-22T01:26:05.720Z,90.90
2018-09-22T01:28:33.874Z,91.00
2018-09-22T01:31:02.039Z,90.90
2018-09-22T01:33:30.187Z,90.50
2018-09-22T01:35:58.499Z,90.50
2018-09-22T01:38:26.675Z,90.40
2018-09-22T01:40:54.913Z,90.30
2018-09-22T01:43:23.124Z,90.20
2018-09-22T01:45:51.391Z,90.20
2018-09-22T01:48:19.741Z,90.30
2018-09-22T01:50:47.921Z,90.30
2018-09-22T01:53:16.131Z,90.40
2018-09-22T01:55:44.363Z,90.60
2018-09-22T01:58:12.581Z,90.80
2018-09-22T02:00:40.753Z,90.90
2018-09-22T02:03:08.915Z,91.40
2018-09-22T02:05:37.061Z,91.40
2018-09-22T02:08:05.253Z,91.70
2018-09-22T02:10:33.440Z,91.80
2018-09-22T02:13:01.651Z,92.00
2018-09-22T02:15:29.803Z,92.10
2018-09-22T02:17:58.035Z,92.30
2018-09-22T02:20:26.280Z,92.40
2018-09-22T02:22:55.408Z,92.30
2018-09-22T02:25:23.577Z,92.50
2018-09-22T02:27:51.772Z,92.60
2018-09-22T02:30:20.725Z,92.50
2018-09-22T02:32:48.905Z,92.40
2018-09-22T02:35:17.125Z,92.40
2018-09-22T02:37:45.323Z,92.30
2018-09-22T02:40:13.473Z,92.30
2018-09-22T02:42:41.829Z,92.30
2018-09-22T02:45:10.066Z,92.20
2018-09-22T02:47:38.345Z,92.00
2018-09-22T02:50:06.525Z,91.90
2018-09-22T02:52:34.735Z,91.90
2018-09-22T02:55:03.585Z,91.80
2018-09-22T02:57:31.822Z,91.80
2018-09-22T03:00:00.061Z,92.00
2018-09-22T03:02:28.289Z,91.80
2018-09-22T03:04:57.664Z,91.80
2018-09-22T03:07:25.888Z,91.80
2018-09-22T03:09:54.120Z,92.10
2018-09-22T03:12:22.292Z,92.20
2018-09-22T03:14:51.075Z,92.20
2018-09-22T03:17:19.324Z,92.30
2018-09-22T03:19:47.564Z,92.10
2018-09-22T03:22:16.470Z,92.10
2018-09-22T03:24:44.733Z,92.10
2018-09-22T03:27:12.941Z,92.00
2018-09-22T03:29:41.118Z,91.90
2018-09-22T03:32:09.292Z,91.80
2018-09-22T03:34:37.573Z,91.60
2018-09-22T03:37:06.088Z,91.60
2018-09-22T03:39:34.288Z,91.70
2018-09-22T03:42:02.705Z,91.80
2018-09-22T03:44:31.111Z,91.80
2018-09-22T03:46:59.526Z,91.90
2018-09-22T03:49:27.985Z,91.90
2018-09-22T03:51:56.257Z,91.80
2018-09-22T03:54:24.397Z,91.90
2018-09-22T03:56:52.638Z,91.90
2018-09-22T03:59:20.869Z,92.00
2018-09-22T04:01:49.025Z,91.90
2018-09-22T04:04:17.537Z,91.70
2018-09-22T04:06:45.758Z,91.70
2018-09-22T04:09:14.043Z,92.00
2018-09-22T04:11:42.295Z,91.80
2018-09-22T04:14:10.605Z,91.80
2018-09-22T04:16:38.849Z,91.90
2018-09-22T04:19:07.117Z,92.10
2018-09-22T04:21:35.361Z,91.90
2018-09-22T04:24:09.831Z,92.00
2018-09-22T04:26:38.267Z,91.90
2018-09-22T04:29:06.473Z,92.00
2018-09-22T04:31:34.640Z,92.30
2018-09-22T04:34:02.837Z,92.10
2018-09-22T04:36:31.113Z,92.00
2018-09-22T04:38:59.343Z,92.00
2018-09-22T04:41:27.581Z,92.20
2018-09-22T04:43:55.835Z,92.00
2018-09-22T04:46:24.031Z,92.00
2018-09-22T04:48:52.309Z,92.00
2018-09-22T04:51:20.601Z,92.10
2018-09-22T04:53:48.829Z,92.00
2018-09-22T04:56:17.052Z,91.90
2018-09-22T04:58:45.357Z,91.90
2018-09-22T05:01:13.632Z,91.50
2018-09-22T05:03:41.957Z,91.40
2018-09-22T05:06:10.132Z,91.20
2018-09-22T05:08:38.365Z,91.10
2018-09-22T05:11:06.565Z,91.00
2018-09-22T05:13:35.011Z,91.00
2018-09-22T05:16:03.265Z,91.00
2018-09-22T05:18:33.515Z,91.30
2018-09-22T05:21:02.033Z,92.80
2018-09-22T05:23:30.217Z,93.80
2018-09-22T05:25:58.444Z,94.40
2018-09-22T05:28:26.814Z,94.90
2018-09-22T05:30:55.079Z,94.90
2018-09-22T05:33:23.352Z,94.80
2018-09-22T05:35:51.934Z,95.10
2018-09-22T05:38:20.127Z,95.30
2018-09-22T05:40:48.419Z,95.50
2018-09-22T05:43:16.637Z,95.50
2018-09-22T05:45:44.909Z,94.80
2018-09-22T05:48:13.149Z,95.00
2018-09-22T05:50:41.507Z,94.70
2018-09-22T05:53:09.787Z,94.60
2018-09-22T05:55:37.975Z,95.00
2018-09-22T05:58:06.395Z,94.90
2018-09-22T06:00:37.368Z,95.20
2018-09-22T06:03:06.869Z,95.20
2018-09-22T06:05:35.175Z,95.20
2018-09-22T06:08:03.743Z,95.30
2018-09-22T06:10:32.243Z,95.20
2018-09-22T06:13:00.519Z,95.00
2018-09-22T06:15:28.804Z,94.90
2018-09-22T06:17:57.815Z,95.10
2018-09-22T06:20:26.111Z,94.90
2018-09-22T06:22:54.493Z,95.10
2018-09-22T06:25:22.753Z,95.10
2018-09-22T06:27:51.032Z,94.80
2018-09-22T06:30:20.089Z,94.80
2018-09-22T06:32:48.409Z,94.60
2018-09-22T06:35:16.646Z,94.70
2018-09-22T06:37:44.873Z,94.30
2018-09-22T06:40:13.131Z,94.10
2018-09-22T06:42:41.521Z,94.00
2018-09-22T06:45:09.851Z,93.90
2018-09-22T06:47:38.059Z,93.80
2018-09-22T06:50:06.381Z,93.70
2018-09-22T06:52:35.125Z,93.60
2018-09-22T06:55:04.699Z,93.40
2018-09-22T06:57:33.077Z,93.10
2018-09-22T07:00:01.541Z,92.90
2018-09-22T07:02:29.868Z,92.70
2018-09-22T07:04:58.122Z,92.20
2018-09-22T07:07:26.319Z,92.20
2018-09-22T07:09:54.569Z,91.80
2018-09-22T07:12:22.769Z,91.80
2018-09-22T07:14:51.088Z,91.70
2018-09-22T07:17:19.307Z,91.40
2018-09-22T07:19:47.741Z,91.30
2018-09-22T07:22:21.425Z,91.30
2018-09-22T07:24:49.790Z,91.10
2018-09-22T07:27:18.107Z,90.60
2018-09-22T07:29:46.281Z,90.50
2018-09-22T07:32:14.546Z,90.70
2018-09-22T07:34:42.806Z,90.20
2018-09-22T07:37:11.145Z,90.00
2018-09-22T07:39:39.560Z,89.80
2018-09-22T07:42:07.769Z,90.00
2018-09-22T07:44:36.000Z,90.50
2018-09-22T07:47:04.820Z,90.40
2018-09-22T07:49:33.176Z,90.00
2018-09-22T07:52:01.403Z,89.70
2018-09-22T07:54:29.611Z,89.40
2018-09-22T07:56:58.414Z,89.00
2018-09-22T07:59:26.645Z,89.00
2018-09-22T08:01:54.865Z,87.80
2018-09-22T08:04:23.096Z,87.00
2018-09-22T08:06:51.439Z,87.60
2018-09-22T08:09:20.512Z,88.30
2018-09-22T08:11:48.784Z,88.80
2018-09-22T08:14:16.955Z,88.50
2018-09-22T08:16:45.214Z,88.30
2018-09-22T08:19:13.486Z,88.00
2018-09-22T08:21:41.717Z,87.20
2018-09-22T08:24:10.065Z,87.50
2018-09-22T08:26:39.351Z,87.30
2018-09-22T08:29:07.785Z,85.90
2018-09-22T08:31:36.228Z,85.80
2018-09-22T08:34:04.779Z,85.60
2018-09-22T08:36:33.136Z,85.40
2018-09-22T08:39:01.296Z,85.10
2018-09-22T08:41:29.571Z,85.00
2018-09-22T08:43:57.820Z,85.10
2018-09-22T08:46:26.099Z,84.90
2018-09-22T08:48:54.268Z,84.50
2018-09-22T08:51:23.671Z,83.70
2018-09-22T08:53:51.953Z,83.50
2018-09-22T08:56:20.183Z,83.20
2018-09-22T08:58:48.487Z,82.90
2018-09-22T09:01:16.702Z,83.00
2018-09-22T09:03:44.937Z,82.70
2018-09-22T09:06:13.221Z,81.30
2018-09-22T09:08:41.478Z,81.60
2018-09-22T09:11:10.891Z,80.90
2018-09-22T09:13:39.171Z,81.40
2018-09-22T09:16:07.376Z,81.30
2018-09-22T09:18:35.527Z,80.80
2018-09-22T09:21:03.774Z,80.50
2018-09-22T09:23:32.093Z,80.00
2018-09-22T09:26:00.375Z,80.00
2018-09-22T09:28:30.232Z,80.40
2018-09-22T09:30:58.529Z,80.90
2018-09-22T09:33:26.720Z,80.70
2018-09-22T09:35:54.988Z,81.00
2018-09-22T09:38:23.317Z,80.70
2018-09-22T09:40:51.536Z,79.80
2018-09-22T09:43:19.785Z,79.20
2018-09-22T09:45:48.087Z,78.80
2018-09-22T09:48:16.276Z,78.50
2018-09-22T09:50:44.464Z,77.80
2018-09-22T09:53:12.731Z,77.30
2018-09-22T09:55:40.994Z,77.60
2018-09-22T09:58:09.231Z,77.30
2018-09-22T10:00:42.735Z,77.30
2018-09-22T10:03:10.985Z,76.70
2018-09-22T10:05:39.271Z,76.90
2018-09-22T10:08:09.059Z,75.80
2018-09-22T10:10:38.437Z,74.40
2018-09-22T10:13:06.760Z,73.90
2018-09-22T10:15:42.390Z,73.50
2018-09-22T10:18:10.659Z,73.90
2018-09-22T10:20:40.249Z,74.00
2018-09-22T10:23:08.595Z,73.60
2018-09-22T10:25:38.344Z,74.00
2018-09-22T10:28:07.159Z,73.30
2018-09-22T10:30:36.514Z,73.00
2018-09-22T10:33:04.867Z,73.50
2018-09-22T10:35:33.175Z,73.70
2018-09-22T10:38:01.413Z,73.50
2018-09-22T10:40:29.677Z,72.60
2018-09-22T10:42:59.239Z,72.90
2018-09-22T10:45:27.455Z,72.60
2018-09-22T10:47:55.697Z,72.50
2018-09-22T10:50:24.628Z,73.10
2018-09-22T10:52:52.924Z,73.20
2018-09-22T10:55:22.039Z,73.60
2018-09-22T10:57:50.247Z,74.20
2018-09-22T11:00:18.499Z,73.60
2018-09-22T11:02:48.528Z,73.90
2018-09-22T11:05:19.265Z,73.50
2018-09-22T11:07:47.625Z,73.50
2018-09-22T11:10:15.837Z,73.50
2018-09-22T11:12:44.115Z,72.30
2018-09-22T11:15:12.481Z,72.80
2018-09-22T11:17:40.738Z,72.70
2018-09-22T11:20:09.050Z,72.60
2018-09-22T11:22:37.249Z,72.00
2018-09-22T11:25:05.453Z,72.20
2018-09-22T11:27:33.673Z,72.30
2018-09-22T11:30:02.013Z,72.60
2018-09-22T11:32:30.256Z,72.10
2018-09-22T11:34:58.455Z,72.50
2018-09-22T11:37:26.695Z,70.90
2018-09-22T11:39:54.923Z,71.40
2018-09-22T11:42:23.229Z,70.90
2018-09-22T11:44:51.493Z,70.30
2018-09-22T11:47:19.723Z,70.60
2018-09-22T11:49:48.075Z,70.30
2018-09-22T11:52:16.351Z,69.90
2018-09-22T11:54:44.564Z,69.40
2018-09-22T11:57:13.299Z,68.80
2018-09-22T11:59:41.575Z,67.90
2018-09-22T12:02:09.811Z,68.30
2018-09-22T12:04:38.167Z,68.70
2018-09-22T12:07:06.432Z,68.60
2018-09-22T12:09:34.657Z,68.40
2018-09-22T12:12:02.941Z,69.00
2018-09-22T12:14:31.236Z,69.80
2018-09-22T12:17:00.897Z,68.90
2018-09-22T12:19:29.116Z,69.00
2018-09-22T12:21:58.009Z,68.30
2018-09-22T12:24:26.267Z,68.20
2018-09-22T12:26:54.533Z,67.90
2018-09-22T12:29:22.847Z,67.60
2018-09-22T12:31:51.130Z,67.20
2018-09-22T12:34:20.462Z,66.40
2018-09-22T12:36:48.708Z,66.10
2018-09-22T12:39:16.928Z,65.70
2018-09-22T12:41:45.197Z,62.50
2018-09-22T12:44:13.521Z,63.20
2018-09-22T12:46:41.818Z,63.20
2018-09-22T12:49:10.471Z,62.90
2018-09-22T12:51:38.715Z,63.00
2018-09-22T12:54:07.059Z,62.60
2018-09-22T12:56:35.369Z,62.60
2018-09-22T12:59:04.103Z,62.80
2018-09-22T13:01:32.341Z,61.20
2018-09-22T13:04:00.536Z,61.40
2018-09-22T13:06:28.754Z,62.30
2018-09-22T13:08:56.939Z,60.60
2018-09-22T13:11:25.132Z,60.10
2018-09-22T13:13:53.316Z,59.70
2018-09-22T13:16:21.583Z,58.90
2018-09-22T13:18:49.903Z,58.50
2018-09-22T13:21:18.112Z,58.40
2018-09-22T13:23:46.393Z,58.90
2018-09-22T13:26:14.656Z,59.10
2018-09-22T13:28:43.342Z,58.80
2018-09-22T13:31:11.648Z,58.80
2018-09-22T13:33:43.244Z,58.90
2018-09-22T13:36:11.710Z,57.80
2018-09-22T13:38:40.786Z,57.60
2018-09-22T13:41:09.257Z,56.60
2018-09-22T13:43:37.531Z,57.00
2018-09-22T13:46:07.119Z,56.90
2018-09-22T13:48:35.314Z,56.30
2018-09-22T13:51:04.545Z,56.30
2018-09-22T13:53:32.859Z,55.10
2018-09-22T13:56:01.115Z,54.80
2018-09-22T13:58:29.523Z,54.20
2018-09-22T14:00:58.697Z,54.00
2018-09-22T14:03:26.956Z,53.70
2018-09-22T14:05:56.040Z,54.20
2018-09-22T14:08:24.510Z,54.20
2018-09-22T14:10:53.580Z,54.90
2018-09-22T14:13:22.069Z,54.00
2018-09-22T14:15:50.965Z,54.00
2018-09-22T14:18:20.890Z,53.80
2018-09-22T14:20:49.302Z,54.10
2018-09-22T14:23:17.698Z,53.80
2018-09-22T14:25:46.025Z,54.30
2018-09-22T14:28:14.317Z,55.30
2018-09-22T14:30:42.989Z,54.80
2018-09-22T14:33:11.260Z,54.80
2018-09-22T14:35:39.589Z,55.60
2018-09-22T14:38:07.870Z,54.80
2018-09-22T14:40:36.225Z,54.60
2018-09-22T14:43:04.403Z,54.60
2018-09-22T14:45:32.667Z,53.90
2018-09-22T14:48:00.856Z,54.40
2018-09-22T14:50:29.100Z,54.50
2018-09-22T14:52:57.309Z,54.40
2018-09-22T14:55:25.645Z,54.70
2018-09-22T14:57:53.905Z,55.10
2018-09-22T15:00:22.124Z,55.00
2018-09-22T15:02:51.152Z,54.80
2018-09-22T15:05:20.055Z,53.80
2018-09-22T15:07:48.429Z,54.10
2018-09-22T15:10:16.831Z,53.40
2018-09-22T15:12:45.193Z,53.60
2018-09-22T15:15:13.508Z,52.60
2018-09-22T15:17:41.757Z,52.60
2018-09-22T15:20:10.195Z,52.60
2018-09-22T15:22:38.379Z,52.90
2018-09-22T15:25:06.651Z,52.60
2018-09-22T15:27:34.871Z,52.60
2018-09-22T15:30:03.781Z,52.40
2018-09-22T15:32:31.986Z,52.50
2018-09-22T15:35:00.191Z,53.00
2018-09-22T15:37:28.447Z,52.70
2018-09-22T15:39:56.609Z,52.50
2018-09-22T15:42:24.785Z,52.40
2018-09-22T15:44:53.018Z,52.40
2018-09-22T15:47:21.207Z,52.40
2018-09-22T15:49:49.385Z,52.50
2018-09-22T15:52:17.796Z,52.70
2018-09-22T15:54:45.939Z,52.80
2018-09-22T15:57:14.205Z,53.10
2018-09-22T15:59:42.453Z,52.50
2018-09-22T16:02:13.721Z,52.80
2018-09-22T16:04:41.909Z,52.90
2018-09-22T16:07:10.123Z,52.80
2018-09-22T16:09:38.338Z,53.10
2018-09-22T16:12:06.762Z,53.20
2018-09-22T16:14:34.929Z,53.40
2018-09-22T16:17:03.394Z,53.40
2018-09-22T16:19:31.633Z,53.60
2018-09-22T16:21:59.803Z,53.70
2018-09-22T16:24:27.980Z,54.10
2018-09-22T16:26:56.193Z,54.30
2018-09-22T16:29:24.396Z,54.20
2018-09-22T16:31:52.602Z,54.60
2018-09-22T16:34:20.873Z,54.80
2018-09-22T16:36:49.051Z,55.10
2018-09-22T16:39:17.318Z,55.30
2018-09-22T16:41:45.741Z,55.70
2018-09-22T16:44:13.980Z,55.80
2018-09-22T16:46:42.129Z,56.20
2018-09-22T16:49:10.339Z,56.60
2018-09-22T16:51:38.619Z,56.80
2018-09-22T16:54:06.822Z,56.90
2018-09-22T16:56:35.647Z,57.00
2018-09-22T16:59:03.891Z,57.20
2018-09-22T17:01:32.098Z,57.30
2018-09-22T17:04:00.403Z,57.30
2018-09-22T17:06:28.585Z,57.50
2018-09-22T17:08:56.837Z,57.70
2018-09-22T17:11:25.047Z,57.90
2018-09-22T17:13:53.240Z,57.80
2018-09-22T17:16:21.484Z,58.00
2018-09-22T17:18:49.669Z,58.10
2018-09-22T17:21:17.902Z,58.10
2018-09-22T17:23:46.073Z,58.40
2018-09-22T17:26:14.256Z,58.50
2018-09-22T17:28:42.491Z,58.70
2018-09-22T17:31:10.780Z,58.70
2018-09-22T17:33:39.102Z,58.70
2018-09-22T17:36:08.171Z,59.00
2018-09-22T17:38:36.387Z,59.10
2018-09-22T17:41:04.663Z,59.20
2018-09-22T17:43:32.853Z,59.30
2018-09-22T17:46:01.069Z,59.50
2018-09-22T17:48:29.347Z,59.50
2018-09-22T17:50:57.589Z,59.90
2018-09-22T17:53:25.857Z,60.00
2018-09-22T17:55:54.095Z,60.10
2018-09-22T17:58:22.360Z,60.40
2018-09-22T18:00:50.564Z,60.50
2018-09-22T18:03:18.940Z,60.50
2018-09-22T18:05:47.527Z,61.00
2018-09-22T18:08:15.757Z,61.40
2018-09-22T18:10:43.943Z,61.10
2018-09-22T18:13:12.216Z,61.10
2018-09-22T18:15:42.341Z,61.20
2018-09-22T18:18:10.713Z,61.50
2018-09-22T18:20:38.907Z,61.50
2018-09-22T18:23:07.217Z,61.70
2018-09-22T18:25:35.406Z,62.00
2018-09-22T18:28:03.648Z,61.80
2018-09-22T18:30:32.222Z,62.10
2018-09-22T18:33:00.442Z,61.80
2018-09-22T18:35:28.769Z,61.80
2018-09-22T18:37:57.073Z,61.90
2018-09-22T18:40:25.264Z,62.00
2018-09-22T18:42:53.544Z,62.10
2018-09-22T18:45:21.810Z,62.00
2018-09-22T18:47:50.023Z,62.20
2018-09-22T18:50:18.305Z,63.10
2018-09-22T18:52:46.673Z,63.70
2018-09-22T18:55:14.862Z,64.00
2018-09-22T18:57:43.051Z,64.50
2018-09-22T19:00:11.293Z,65.40
2018-09-22T19:02:40.577Z,65.70
2018-09-22T19:05:08.768Z,66.20
2018-09-22T19:07:37.916Z,66.60
2018-09-22T19:10:07.161Z,67.20
2018-09-22T19:12:35.379Z,67.50
2018-09-22T19:15:07.881Z,67.50
2018-09-22T19:17:40.575Z,67.40
2018-09-22T19:20:13.984Z,68.00
2018-09-22T19:22:44.903Z,69.20
2018-09-22T19:25:15.233Z,68.90
2018-09-22T19:27:48.454Z,69.50
2018-09-22T19:30:51.258Z,70.00
2018-09-22T19:33:24.884Z,70.60
2018-09-22T19:35:59.139Z,71.30
2018-09-22T19:39:30.607Z,71.70
2018-09-22T19:42:03.489Z,71.90
2018-09-22T19:44:37.269Z,72.50
2018-09-22T19:47:15.191Z,73.00
2018-09-22T19:49:48.968Z,73.10
2018-09-22T19:52:20.735Z,73.00
2018-09-22T19:54:48.938Z,73.00
2018-09-22T19:57:17.311Z,73.00
2018-09-22T19:59:45.533Z,72.70
2018-09-22T20:02:13.848Z,72.60
2018-09-22T20:04:42.043Z,73.00
2018-09-22T20:07:10.223Z,73.20
2018-09-22T20:09:38.502Z,73.50
2018-09-22T20:12:06.675Z,73.90
2018-09-22T20:14:34.901Z,74.50
2018-09-22T20:17:03.134Z,75.20
2018-09-22T20:19:31.395Z,76.00
2018-09-22T20:21:59.603Z,76.90
2018-09-22T20:24:27.837Z,77.40
2018-09-22T20:26:56.146Z,78.50
2018-09-22T20:29:24.432Z,79.10
2018-09-22T20:31:52.715Z,79.30
2018-09-22T20:34:20.939Z,80.00
2018-09-22T20:36:49.163Z,81.00
2018-09-22T20:39:17.400Z,81.90
2018-09-22T20:41:46.537Z,81.70
2018-09-22T20:44:14.848Z,82.70
2018-09-22T20:46:43.051Z,83.00
2018-09-22T20:49:11.254Z,83.50
2018-09-22T20:51:39.429Z,84.00
2018-09-22T20:54:07.751Z,84.50
2018-09-22T20:56:36.168Z,84.70
2018-09-22T20:59:04.463Z,84.60
2018-09-22T21:01:32.775Z,85.00
2018-09-22T21:04:01.003Z,85.30
2018-09-22T21:06:29.185Z,85.10
2018-09-22T21:08:57.825Z,85.00
2018-09-22T21:11:26.156Z,85.00
2018-09-22T21:13:54.399Z,85.40
2018-09-22T21:16:22.598Z,85.50
2018-09-22T21:18:50.756Z,85.70
2018-09-22T21:21:19.399Z,85.70
2018-09-22T21:23:48.373Z,86.00
2018-09-22T21:26:16.648Z,86.40
2018-09-22T21:28:44.868Z,86.70
2018-09-22T21:31:13.488Z,86.70
2018-09-22T21:33:41.699Z,86.90
2018-09-22T21:36:12.259Z,86.90
2018-09-22T21:38:40.475Z,86.80
2018-09-22T21:41:09.356Z,87.60
2018-09-22T21:43:37.966Z,88.20
2018-09-22T21:46:06.237Z,88.30
2018-09-22T21:48:34.504Z,88.60
2018-09-22T21:51:02.817Z,89.00
2018-09-22T21:53:31.056Z,89.40
2018-09-22T21:55:59.261Z,90.00
2018-09-22T21:58:27.566Z,90.20
2018-09-22T22:00:55.799Z,90.30
2018-09-22T22:03:24.372Z,90.60
2018-09-22T22:05:53.241Z,91.00
2018-09-22T22:08:22.261Z,91.20
2018-09-22T22:10:50.527Z,91.30
2018-09-22T22:13:19.333Z,91.30
2018-09-22T22:15:47.663Z,91.70
2018-09-22T22:18:15.880Z,92.00
2018-09-22T22:20:44.934Z,92.50
2018-09-22T22:23:13.137Z,92.30
2018-09-22T22:25:42.001Z,92.40
2018-09-22T22:28:10.191Z,92.70
2018-09-22T22:30:38.428Z,92.70
2018-09-22T22:33:07.486Z,92.80
2018-09-22T22:35:35.658Z,92.80
2018-09-22T22:38:03.866Z,92.90
2018-09-22T22:40:32.048Z,93.00
2018-09-22T22:43:01.848Z,93.00
2018-09-22T22:45:30.055Z,93.00
2018-09-22T22:47:58.264Z,93.10
2018-09-22T22:50:26.513Z,93.20
2018-09-22T22:52:54.756Z,93.10
2018-09-22T22:55:29.613Z,93.30
2018-09-22T22:57:57.887Z,93.30
2018-09-22T23:00:26.063Z,93.50
2018-09-22T23:02:54.313Z,93.50
2018-09-22T23:05:22.515Z,93.60
2018-09-22T23:07:50.764Z,93.70
2018-09-22T23:10:18.981Z,93.80
2018-09-22T23:12:47.252Z,93.80
2018-09-22T23:15:15.582Z,93.90
2018-09-22T23:17:43.810Z,93.80
2018-09-22T23:20:12.047Z,94.00
2018-09-22T23:22:41.695Z,93.70
2018-09-22T23:25:09.991Z,93.90
2018-09-22T23:27:38.268Z,93.80
2018-09-22T23:30:07.563Z,93.90
2018-09-22T23:32:35.853Z,93.90
2018-09-22T23:35:04.153Z,93.90
2018-09-22T23:37:32.431Z,94.00
2018-09-22T23:40:00.605Z,94.00
2018-09-22T23:42:28.953Z,94.00
2018-09-22T23:44:57.149Z,94.00
2018-09-22T23:47:25.333Z,94.00
2018-09-22T23:49:53.795Z,94.00
2018-09-22T23:52:22.669Z,94.10
2018-09-22T23:54:51.040Z,94.10
2018-09-22T23:57:19.251Z,94.10
2018-09-22T23:59:48.239Z,94.20
